Nord Supreme — OWPB2 — position and weather

sailwx.info

Track history (hours):
 
Tides and Currents Weather Stations Pressure Air Temp Water Temp Dewpoint Dewpoint Depression Visibility Wind Speed Wind Dir Waves Ship Positions

Nord Supreme

Last reported at 2018-Apr-22 13:09 UTC. Time now 2018-Apr-23 05:19 UTC.
Position N 27°31' W 115°17'.

Length 182 m; draft 8.2 m.

Type: Ship. MMSI: 219602000.

Date/timePositionNaut miles runAvg speedWind from/ knotsBaromVisibWave heightAir tempDewpointWater temp
2018-Apr-22 13:09N 27°31' W 115°17'414.2
2018-Apr-22 12:52N 27°35' W 115°20'10413.9
2018-Apr-22 05:22N 29°09' W 116°10'1014.7
2018-Apr-22 04:43N 29°18' W 116°13'14113.7
2018-Apr-21 18:24N 31°34' W 116°58'713.9
2018-Apr-21 17:53N 31°41' W 117°00'513.6
2018-Apr-21 17:29N 31°46' W 117°02'713.4
2018-Apr-21 17:00N 31°52' W 117°04'  
2018-Apr-15 20:18N 32°21' W 117°06'0 0.8
2018-Apr-15 20:00N 32°20' W 117°06'1 2.1
2018-Apr-15 19:25N 32°21' W 117°07'0 0.1
2018-Apr-15 19:00N 32°21' W 117°07'2 4.8
2018-Apr-15 18:30N 32°21' W 117°10'4 7.2
2018-Apr-15 18:00N 32°21' W 117°14'1410.6
2018-Apr-15 16:40N 32°29' W 117°28'213.1
2018-Apr-15 16:30N 32°30' W 117°30'613.1
2018-Apr-15 16:00N 32°34' W 117°37'612.3
2018-Apr-15 15:30N 32°36' W 117°43'613.0
2018-Apr-15 15:00N 32°36' W 117°51'713.0
2018-Apr-15 14:30N 32°36' W 117°59'713.0
2018-Apr-15 14:00N 32°36' W 118°07'713.0
2018-Apr-15 13:30N 32°36' W 118°14'612.8
2018-Apr-15 13:00N 32°35' W 118°22'612.5
2018-Apr-15 12:29N 32°34' W 118°29'712.3
2018-Apr-15 11:56N 32°34' W 118°38'612.4
2018-Apr-15 11:25N 32°34' W 118°45'512.5
2018-Apr-15 11:00N 32°34' W 118°51'612.6
2018-Apr-15 10:30N 32°35' W 118°59'812.9
2018-Apr-15 09:52N 32°38' W 119°08'613.0
2018-Apr-15 09:23N 32°41' W 119°14'513.2
2018-Apr-15 08:58N 32°44' W 119°20'913.0
2018-Apr-15 08:16N 32°49' W 119°29'312.7
2018-Apr-15 08:00N 32°50' W 119°32'612.6
2018-Apr-15 07:30N 32°54' W 119°39'1813.5
2018-Apr-15 06:11N 33°05' W 119°55'213.7
2018-Apr-15 06:00N 33°07' W 119°57'713.3
2018-Apr-15 05:30N 33°11' W 120°03'713.1
2018-Apr-15 05:00N 33°16' W 120°09'613.1
2018-Apr-15 04:30N 33°20' W 120°14'612.9
2018-Apr-15 04:00N 33°25' W 120°20'712.9
2018-Apr-15 03:30N 33°30' W 120°25'613.0
2018-Apr-15 03:00N 33°34' W 120°31'713.2
2018-Apr-15 02:28N 33°39' W 120°37'613.8
2018-Apr-15 02:00N 33°44' W 120°42'713.4
2018-Apr-15 01:29N 33°48' W 120°48'713.2
2018-Apr-15 00:58N 33°54' W 120°53'813.1
2018-Apr-15 00:21N 34°00' W 120°59'513.3
2018-Apr-15 00:00N 34°04' W 121°02'713.4
2018-Apr-14 23:28N 34°10' W 121°06'613.1
2018-Apr-14 23:00N 34°16' W 121°10'713.4
2018-Apr-14 22:30N 34°21' W 121°14'713.4
2018-Apr-14 21:57N 34°28' W 121°19'613.3
2018-Apr-14 21:30N 34°33' W 121°22'713.6
2018-Apr-14 21:00N 34°39' W 121°27'713.8
2018-Apr-14 20:31N 34°45' W 121°31'713.7
2018-Apr-14 20:00N 34°51' W 121°35'713.7
2018-Apr-14 19:30N 34°57' W 121°39'713.6
2018-Apr-14 19:00N 35°02' W 121°44'713.3
2018-Apr-14 18:30N 35°08' W 121°48'713.2
2018-Apr-14 18:00N 35°14' W 121°52'713.1
2018-Apr-14 17:30N 35°20' W 121°56'713.2
2018-Apr-14 17:00N 35°25' W 122°00'613.2
2018-Apr-14 16:30N 35°31' W 122°05'7513.1
2018-Apr-14 10:48N 36°38' W 122°44'813.5
2018-Apr-14 10:13N 36°46' W 122°44'1313.5
2018-Apr-14 09:13N 36°60' W 122°44'1013.4
2018-Apr-14 08:27N 37°10' W 122°44'613.7
2018-Apr-14 08:00N 37°16' W 122°44'713.9
2018-Apr-14 07:30N 37°23' W 122°44'713.8
2018-Apr-14 07:00N 37°30' W 122°44'713.6
2018-Apr-14 06:31N 37°36' W 122°44'612.2
2018-Apr-14 06:01N 37°42' W 122°42'4 8.3
2018-Apr-14 05:31N 37°46' W 122°39'4 8.3
2018-Apr-14 05:01N 37°47' W 122°34'5 9.2
2018-Apr-14 04:31N 37°49' W 122°29'4 7.3
2018-Apr-14 04:01N 37°51' W 122°25'4 8.0
2018-Apr-14 03:30N 37°55' W 122°25'1 1.2
2018-Apr-14 02:59N 37°55' W 122°25'0 0.0
2018-Apr-14 02:30N 37°55' W 122°25'0 0.0
2018-Apr-14 02:00N 37°55' W 122°25'0 0.0
2018-Apr-14 01:30N 37°55' W 122°25'0 0.0
2018-Apr-14 00:59N 37°55' W 122°25'0 0.0
2018-Apr-14 00:26N 37°55' W 122°25'0 0.0
2018-Apr-13 23:56N 37°55' W 122°25'0 0.0
2018-Apr-13 23:30N 37°55' W 122°25'0 0.0
2018-Apr-13 23:00N 37°55' W 122°25'0 0.0
2018-Apr-13 22:30N 37°55' W 122°25'0 0.0
2018-Apr-13 22:00N 37°55' W 122°25'0 0.0
2018-Apr-13 21:30N 37°55' W 122°25'0 0.0
2018-Apr-13 20:59N 37°55' W 122°25'0 0.0
2018-Apr-13 20:30N 37°55' W 122°25'0 0.0
2018-Apr-13 20:01N 37°55' W 122°25'0 0.0
2018-Apr-13 19:30N 37°55' W 122°25'0 0.0
2018-Apr-13 19:00N 37°55' W 122°25'0 0.0
2018-Apr-13 18:30N 37°55' W 122°25'0 0.0
2018-Apr-13 18:00N 37°55' W 122°25'0 0.0
2018-Apr-13 17:30N 37°55' W 122°25'0 0.0
2018-Apr-13 17:00N 37°55' W 122°25'0 0.0
2018-Apr-13 16:30N 37°55' W 122°25'0 0.0
2018-Apr-13 16:00N 37°55' W 122°25'0 0.0
2018-Apr-13 15:30N 37°55' W 122°25'0 0.0
2018-Apr-13 15:00N 37°55' W 122°25'0 0.0
2018-Apr-13 14:29N 37°55' W 122°25'0 0.0
2018-Apr-13 14:00N 37°55' W 122°25'0 0.0
2018-Apr-13 13:30N 37°55' W 122°25'0 0.0
2018-Apr-13 13:00N 37°55' W 122°25'0 0.0
2018-Apr-13 12:30N 37°55' W 122°25'0 0.0
2018-Apr-13 12:00N 37°55' W 122°25'0 0.0
2018-Apr-13 11:30N 37°55' W 122°25'0 0.0
2018-Apr-13 11:00N 37°55' W 122°25'0 0.0
2018-Apr-13 10:30N 37°55' W 122°25'0 0.0
2018-Apr-13 10:00N 37°55' W 122°25'0 0.0
2018-Apr-13 09:30N 37°55' W 122°25'0 0.0
2018-Apr-13 09:00N 37°55' W 122°25'0 0.0
2018-Apr-13 08:30N 37°55' W 122°25'0 0.0
2018-Apr-13 08:00N 37°55' W 122°25'0 0.0
2018-Apr-13 07:30N 37°55' W 122°25'0 0.0
2018-Apr-13 07:00N 37°55' W 122°25'0 0.0
2018-Apr-13 06:30N 37°55' W 122°25'0 0.0
2018-Apr-13 06:00N 37°55' W 122°25'0 0.0
2018-Apr-13 05:23N 37°55' W 122°25'0 0.0
2018-Apr-13 04:59N 37°55' W 122°25'0 0.0
2018-Apr-13 04:30N 37°55' W 122°25'0 0.0
2018-Apr-13 03:58N 37°55' W 122°25'0 0.0
2018-Apr-13 03:30N 37°55' W 122°25'0 0.0
2018-Apr-13 03:00N 37°55' W 122°25'0 0.0
2018-Apr-13 02:28N 37°55' W 122°25'0 0.0
2018-Apr-13 02:00N 37°55' W 122°25'0 0.0
2018-Apr-13 01:29N 37°55' W 122°25'0 0.0
2018-Apr-13 01:00N 37°55' W 122°25'0 0.0
2018-Apr-13 00:29N 37°55' W 122°25'0 0.0
2018-Apr-13 00:00N 37°55' W 122°25'0 0.0
2018-Apr-12 23:30N 37°55' W 122°25'0 0.0
2018-Apr-12 23:00N 37°55' W 122°25'0 0.0
2018-Apr-12 22:30N 37°55' W 122°25'0 0.0
2018-Apr-12 22:00N 37°55' W 122°25'0 0.0
2018-Apr-12 21:30N 37°55' W 122°25'0 0.0
2018-Apr-12 21:00N 37°55' W 122°25'0 0.5
2018-Apr-12 20:30N 37°55' W 122°25'3 5.7
2018-Apr-12 20:00N 37°52' W 122°25'510.6
2018-Apr-12 19:30N 37°48' W 122°22'3 5.7
2018-Apr-12 19:00N 37°45' W 122°21'0 0.3
2018-Apr-12 18:27N 37°45' W 122°21'0 0.2
2018-Apr-12 18:00N 37°45' W 122°21'0 0.1
2018-Apr-12 17:30N 37°45' W 122°21'0 0.0
2018-Apr-12 17:00N 37°45' W 122°21'0 0.1
2018-Apr-12 16:30N 37°45' W 122°20'0 0.0
2018-Apr-12 16:00N 37°45' W 122°20'0 0.0
2018-Apr-12 15:30N 37°45' W 122°20'0 0.0
2018-Apr-12 15:00N 37°45' W 122°20'0 0.0
2018-Apr-12 14:27N 37°45' W 122°20'0 0.0
2018-Apr-12 14:00N 37°45' W 122°20'0 0.0
2018-Apr-12 13:30N 37°45' W 122°20'  
Track history (hours):
 
Tides and Currents Weather Stations Pressure Air Temp Water Temp Dewpoint Dewpoint Depression Visibility Wind Speed Wind Dir Waves Ship Positions

Nord Supreme

Last reported at 2018-Apr-22 13:09 UTC. Time now 2018-Apr-23 05:19 UTC.
Position N 27°31' W 115°17'.

Length 182 m; draft 8.2 m.

Type: Ship. MMSI: 219602000.

Date/timePositionNaut miles runAvg speedWind from/ knotsBaromVisibWave heightAir tempDewpointWater temp
2018-Apr-22 13:09N 27°31' W 115°17'414.2
2018-Apr-22 12:52N 27°35' W 115°20'10413.9
2018-Apr-22 05:22N 29°09' W 116°10'1014.7
2018-Apr-22 04:43N 29°18' W 116°13'14113.7
2018-Apr-21 18:24N 31°34' W 116°58'713.9
2018-Apr-21 17:53N 31°41' W 117°00'513.6
2018-Apr-21 17:29N 31°46' W 117°02'713.4
2018-Apr-21 17:00N 31°52' W 117°04'  
2018-Apr-15 20:18N 32°21' W 117°06'0 0.8
2018-Apr-15 20:00N 32°20' W 117°06'1 2.1
2018-Apr-15 19:25N 32°21' W 117°07'0 0.1
2018-Apr-15 19:00N 32°21' W 117°07'2 4.8
2018-Apr-15 18:30N 32°21' W 117°10'4 7.2
2018-Apr-15 18:00N 32°21' W 117°14'1410.6
2018-Apr-15 16:40N 32°29' W 117°28'213.1
2018-Apr-15 16:30N 32°30' W 117°30'613.1
2018-Apr-15 16:00N 32°34' W 117°37'612.3
2018-Apr-15 15:30N 32°36' W 117°43'613.0
2018-Apr-15 15:00N 32°36' W 117°51'713.0
2018-Apr-15 14:30N 32°36' W 117°59'713.0
2018-Apr-15 14:00N 32°36' W 118°07'713.0
2018-Apr-15 13:30N 32°36' W 118°14'612.8
2018-Apr-15 13:00N 32°35' W 118°22'612.5
2018-Apr-15 12:29N 32°34' W 118°29'712.3
2018-Apr-15 11:56N 32°34' W 118°38'612.4
2018-Apr-15 11:25N 32°34' W 118°45'512.5
2018-Apr-15 11:00N 32°34' W 118°51'612.6
2018-Apr-15 10:30N 32°35' W 118°59'812.9
2018-Apr-15 09:52N 32°38' W 119°08'613.0
2018-Apr-15 09:23N 32°41' W 119°14'513.2
2018-Apr-15 08:58N 32°44' W 119°20'913.0
2018-Apr-15 08:16N 32°49' W 119°29'312.7
2018-Apr-15 08:00N 32°50' W 119°32'612.6
2018-Apr-15 07:30N 32°54' W 119°39'1813.5
2018-Apr-15 06:11N 33°05' W 119°55'213.7
2018-Apr-15 06:00N 33°07' W 119°57'713.3
2018-Apr-15 05:30N 33°11' W 120°03'713.1
2018-Apr-15 05:00N 33°16' W 120°09'613.1
2018-Apr-15 04:30N 33°20' W 120°14'612.9
2018-Apr-15 04:00N 33°25' W 120°20'712.9
2018-Apr-15 03:30N 33°30' W 120°25'613.0
2018-Apr-15 03:00N 33°34' W 120°31'713.2
2018-Apr-15 02:28N 33°39' W 120°37'613.8
2018-Apr-15 02:00N 33°44' W 120°42'713.4
2018-Apr-15 01:29N 33°48' W 120°48'713.2
2018-Apr-15 00:58N 33°54' W 120°53'813.1
2018-Apr-15 00:21N 34°00' W 120°59'513.3
2018-Apr-15 00:00N 34°04' W 121°02'713.4
2018-Apr-14 23:28N 34°10' W 121°06'613.1
2018-Apr-14 23:00N 34°16' W 121°10'713.4
2018-Apr-14 22:30N 34°21' W 121°14'713.4
2018-Apr-14 21:57N 34°28' W 121°19'613.3
2018-Apr-14 21:30N 34°33' W 121°22'713.6
2018-Apr-14 21:00N 34°39' W 121°27'713.8
2018-Apr-14 20:31N 34°45' W 121°31'713.7
2018-Apr-14 20:00N 34°51' W 121°35'713.7
2018-Apr-14 19:30N 34°57' W 121°39'713.6
2018-Apr-14 19:00N 35°02' W 121°44'713.3
2018-Apr-14 18:30N 35°08' W 121°48'713.2
2018-Apr-14 18:00N 35°14' W 121°52'713.1
2018-Apr-14 17:30N 35°20' W 121°56'713.2
2018-Apr-14 17:00N 35°25' W 122°00'613.2
2018-Apr-14 16:30N 35°31' W 122°05'7513.1
2018-Apr-14 10:48N 36°38' W 122°44'813.5
2018-Apr-14 10:13N 36°46' W 122°44'1313.5
2018-Apr-14 09:13N 36°60' W 122°44'1013.4
2018-Apr-14 08:27N 37°10' W 122°44'613.7
2018-Apr-14 08:00N 37°16' W 122°44'713.9
2018-Apr-14 07:30N 37°23' W 122°44'713.8
2018-Apr-14 07:00N 37°30' W 122°44'713.6
2018-Apr-14 06:31N 37°36' W 122°44'612.2
2018-Apr-14 06:01N 37°42' W 122°42'4 8.3
2018-Apr-14 05:31N 37°46' W 122°39'4 8.3
2018-Apr-14 05:01N 37°47' W 122°34'5 9.2
2018-Apr-14 04:31N 37°49' W 122°29'4 7.3
2018-Apr-14 04:01N 37°51' W 122°25'4 8.0
2018-Apr-14 03:30N 37°55' W 122°25'1 1.2
2018-Apr-14 02:59N 37°55' W 122°25'0 0.0
2018-Apr-14 02:30N 37°55' W 122°25'0 0.0
2018-Apr-14 02:00N 37°55' W 122°25'0 0.0
2018-Apr-14 01:30N 37°55' W 122°25'0 0.0
2018-Apr-14 00:59N 37°55' W 122°25'0 0.0
2018-Apr-14 00:26N 37°55' W 122°25'0 0.0
2018-Apr-13 23:56N 37°55' W 122°25'0 0.0
2018-Apr-13 23:30N 37°55' W 122°25'0 0.0
2018-Apr-13 23:00N 37°55' W 122°25'0 0.0
2018-Apr-13 22:30N 37°55' W 122°25'0 0.0
2018-Apr-13 22:00N 37°55' W 122°25'0 0.0
2018-Apr-13 21:30N 37°55' W 122°25'0 0.0
2018-Apr-13 20:59N 37°55' W 122°25'0 0.0
2018-Apr-13 20:30N 37°55' W 122°25'0 0.0
2018-Apr-13 20:01N 37°55' W 122°25'0 0.0
2018-Apr-13 19:30N 37°55' W 122°25'0 0.0
2018-Apr-13 19:00N 37°55' W 122°25'0 0.0
2018-Apr-13 18:30N 37°55' W 122°25'0 0.0
2018-Apr-13 18:00N 37°55' W 122°25'0 0.0
2018-Apr-13 17:30N 37°55' W 122°25'0 0.0
2018-Apr-13 17:00N 37°55' W 122°25'0 0.0
2018-Apr-13 16:30N 37°55' W 122°25'0 0.0
2018-Apr-13 16:00N 37°55' W 122°25'0 0.0
2018-Apr-13 15:30N 37°55' W 122°25'0 0.0
2018-Apr-13 15:00N 37°55' W 122°25'0 0.0
2018-Apr-13 14:29N 37°55' W 122°25'0 0.0
2018-Apr-13 14:00N 37°55' W 122°25'0 0.0
2018-Apr-13 13:30N 37°55' W 122°25'0 0.0
2018-Apr-13 13:00N 37°55' W 122°25'0 0.0
2018-Apr-13 12:30N 37°55' W 122°25'0 0.0
2018-Apr-13 12:00N 37°55' W 122°25'0 0.0
2018-Apr-13 11:30N 37°55' W 122°25'0 0.0
2018-Apr-13 11:00N 37°55' W 122°25'0 0.0
2018-Apr-13 10:30N 37°55' W 122°25'0 0.0
2018-Apr-13 10:00N 37°55' W 122°25'0 0.0
2018-Apr-13 09:30N 37°55' W 122°25'0 0.0
2018-Apr-13 09:00N 37°55' W 122°25'0 0.0
2018-Apr-13 08:30N 37°55' W 122°25'0 0.0
2018-Apr-13 08:00N 37°55' W 122°25'0 0.0
2018-Apr-13 07:30N 37°55' W 122°25'0 0.0
2018-Apr-13 07:00N 37°55' W 122°25'0 0.0
2018-Apr-13 06:30N 37°55' W 122°25'0 0.0
2018-Apr-13 06:00N 37°55' W 122°25'0 0.0
2018-Apr-13 05:23N 37°55' W 122°25'0 0.0
2018-Apr-13 04:59N 37°55' W 122°25'0 0.0
2018-Apr-13 04:30N 37°55' W 122°25'0 0.0
2018-Apr-13 03:58N 37°55' W 122°25'0 0.0
2018-Apr-13 03:30N 37°55' W 122°25'0 0.0
2018-Apr-13 03:00N 37°55' W 122°25'0 0.0
2018-Apr-13 02:28N 37°55' W 122°25'0 0.0
2018-Apr-13 02:00N 37°55' W 122°25'0 0.0
2018-Apr-13 01:29N 37°55' W 122°25'0 0.0
2018-Apr-13 01:00N 37°55' W 122°25'0 0.0
2018-Apr-13 00:29N 37°55' W 122°25'0 0.0
2018-Apr-13 00:00N 37°55' W 122°25'0 0.0
2018-Apr-12 23:30N 37°55' W 122°25'0 0.0
2018-Apr-12 23:00N 37°55' W 122°25'0 0.0
2018-Apr-12 22:30N 37°55' W 122°25'0 0.0
2018-Apr-12 22:00N 37°55' W 122°25'0 0.0
2018-Apr-12 21:30N 37°55' W 122°25'0 0.0
2018-Apr-12 21:00N 37°55' W 122°25'0 0.5
2018-Apr-12 20:30N 37°55' W 122°25'3 5.7
2018-Apr-12 20:00N 37°52' W 122°25'510.6
2018-Apr-12 19:30N 37°48' W 122°22'3 5.7
2018-Apr-12 19:00N 37°45' W 122°21'0 0.3
2018-Apr-12 18:27N 37°45' W 122°21'0 0.2
2018-Apr-12 18:00N 37°45' W 122°21'0 0.1
2018-Apr-12 17:30N 37°45' W 122°21'0 0.0
2018-Apr-12 17:00N 37°45' W 122°21'0 0.1
2018-Apr-12 16:30N 37°45' W 122°20'0 0.0
2018-Apr-12 16:00N 37°45' W 122°20'0 0.0
2018-Apr-12 15:30N 37°45' W 122°20'0 0.0
2018-Apr-12 15:00N 37°45' W 122°20'0 0.0
2018-Apr-12 14:27N 37°45' W 122°20'0 0.0
2018-Apr-12 14:00N 37°45' W 122°20'0 0.0
2018-Apr-12 13:30N 37°45' W 122°20'  

Dump ship's entire track history